CYGQ

Geraldton Greenstone Regional Airport

Geraldton, Ontario, Canada
TAF CYGQ 181939Z 1820/1908 29005KT P6SM -SN BKN030 TEMPO 1820/1824 3SM -SHSN BKN020 FM190000 34006KT P6SM BKN030 RMK NXT FCST BY 190200Z
Issued Valid From Valid To
Nov-18 @ 19:39 UTC
(5 hours ago)
Nov-18 @ 20:00 UTC
(5 hours ago)
Nov-19 @ 08:00 UTC
(in 7 hours)
Expired Click to View Nov-18 @ 20:00 to Nov-19 @ 00:00
TAF CYGQ 181939Z 1820/1908 29005KT P6SM -SN BKN030
Wind Visibility Clouds Conditions
290° at 5 knots Greater than 6 miles
  • Broken at 3,000' AGL
  • Light Snow
Expired Click to View Nov-18 @ 20:00 to Nov-19 @ 00:00
TEMPO 1820/1824 3SM -SHSN BKN020
Visibility Clouds Conditions
3 miles
  • Broken at 2,000' AGL
  • Light Snow
From Nov-19 @ 00:00 to Nov-19 @ 08:00
FM190000 34006KT P6SM BKN030 RMK NXT FCST BY 190200Z
Wind Visibility Clouds
340° at 6 knots Greater than 6 miles
  • Broken at 3,000' AGL
TAF CYGQ 181939Z 1820/1908 29005KT P6SM -SN BKN030 TEMPO 1820/1824 3SM -SHSN BKN020 FM190000 34006KT P6SM BKN030 RMK NXT FCST BY 190200Z
Issued Nov-18 @ 19:39 UTC
(5 hours ago)
Valid From Nov-18 @ 20:00 UTC
(5 hours ago)
Valid To Nov-19 @ 08:00 UTC
(in 7 hours)
Nov-18 @ 20:00 - Nov-19 @ 00:00
Wind Visibility
290° at 5 knots Greater than 6 miles
Clouds
  • Broken at 3,000' AGL
Conditions
  • Light Snow
Nov-18 @ 20:00 - Nov-19 @ 00:00
Clouds
  • Broken at 2,000' AGL
Conditions
  • Light Snow
From Nov-19 @ 00:00 - Nov-19 @ 08:00
Wind Visibility
340° at 6 knots Greater than 6 miles
Clouds
  • Broken at 3,000' AGL